DAH2017 LEAL-DAOO
Flight info
| Callsign | DAH2017 |
|---|---|
| Flight time | 0h 43m |
| Altitude | 29000 |
| Route | MAGAL P34 HAMRA UA34 BAHRI A34 MOS |
| Aircraft | B737/M-SDE2E3FGHIRWXY/LB1 |
Departure
| Time | 2026-04-25 09:32 |
|---|---|
| Airport | Alicante-Elche Miguel Hernández Airport (LEAL) |
Arrival
| Time | 2026-04-25 10:16 |
|---|---|
| Airport | Oran Es-Sénia (Ahmed Ben Bella) International Airport (DAOO) |
| Time | Latitude | Longitude | Altitude | Speed | Heading |
|---|---|---|---|---|---|
| 2026-04-25 08:53 | 38.28585 | -0.55721 | 97 ft | 0 kts | 9° |
| 2026-04-25 09:17 | 38.28584 | -0.55721 | 97 ft | 2 kts | 9° |
| 2026-04-25 09:17 | 38.28560 | -0.55727 | 97 ft | 4 kts | 19° |
| 2026-04-25 09:17 | 38.28536 | -0.55742 | 97 ft | 4 kts | 43° |
| 2026-04-25 09:18 | 38.28524 | -0.55767 | 97 ft | 3 kts | 96° |
| 2026-04-25 09:18 | 38.28525 | -0.55777 | 97 ft | 0 kts | 100° |
| 2026-04-25 09:22 | 38.28523 | -0.55759 | 96 ft | 6 kts | 100° |
| 2026-04-25 09:22 | 38.28515 | -0.55701 | 97 ft | 7 kts | 100° |
| 2026-04-25 09:22 | 38.28506 | -0.55639 | 97 ft | 7 kts | 100° |
| 2026-04-25 09:22 | 38.28497 | -0.55579 | 97 ft | 7 kts | 103° |
| 2026-04-25 09:23 | 38.28485 | -0.55521 | 100 ft | 7 kts | 104° |
| 2026-04-25 09:23 | 38.28474 | -0.55457 | 97 ft | 8 kts | 100° |
| 2026-04-25 09:23 | 38.28464 | -0.55376 | 96 ft | 10 kts | 98° |
| 2026-04-25 09:23 | 38.28453 | -0.55287 | 93 ft | 10 kts | 100° |
| 2026-04-25 09:24 | 38.28439 | -0.55190 | 90 ft | 12 kts | 101° |
| 2026-04-25 09:24 | 38.28390 | -0.55165 | 89 ft | 10 kts | 205° |
| 2026-04-25 09:24 | 38.28325 | -0.55205 | 86 ft | 12 kts | 159° |
| 2026-04-25 09:24 | 38.28294 | -0.55097 | 71 ft | 15 kts | 99° |
| 2026-04-25 09:25 | 38.28294 | -0.55092 | 76 ft | 15 kts | 99° |
| 2026-04-25 09:25 | 38.28280 | -0.54997 | 69 ft | 18 kts | 100° |
| 2026-04-25 09:25 | 38.28257 | -0.54832 | 67 ft | 20 kts | 100° |
| 2026-04-25 09:25 | 38.28237 | -0.54690 | 54 ft | 16 kts | 99° |
| 2026-04-25 09:26 | 38.28219 | -0.54552 | 54 ft | 16 kts | 100° |
| 2026-04-25 09:26 | 38.28197 | -0.54401 | 49 ft | 18 kts | 100° |
| 2026-04-25 09:26 | 38.28176 | -0.54252 | 49 ft | 15 kts | 100° |
| 2026-04-25 09:26 | 38.28158 | -0.54141 | 47 ft | 11 kts | 108° |
| 2026-04-25 09:27 | 38.28102 | -0.54109 | 48 ft | 3 kts | 185° |
| 2026-04-25 09:27 | 38.28083 | -0.54112 | 48 ft | 3 kts | 189° |
| 2026-04-25 09:27 | 38.28078 | -0.54113 | 48 ft | 0 kts | 189° |
| 2026-04-25 09:30 | 38.28069 | -0.54115 | 49 ft | 4 kts | 189° |
| 2026-04-25 09:31 | 38.28028 | -0.54125 | 50 ft | 7 kts | 196° |
| 2026-04-25 09:31 | 38.28000 | -0.54150 | 50 ft | 7 kts | 234° |
| 2026-04-25 09:31 | 38.27993 | -0.54202 | 52 ft | 0 kts | 276° |
| 2026-04-25 09:32 | 38.28014 | -0.54374 | 54 ft | 53 kts | 280° |
| 2026-04-25 09:32 | 38.28127 | -0.55166 | 66 ft | 125 kts | 280° |
| 2026-04-25 09:32 | 38.28318 | -0.56437 | 392 ft | 148 kts | 281° |
| 2026-04-25 09:32 | 38.28469 | -0.57639 | 1291 ft | 148 kts | 278° |
| 2026-04-25 09:33 | 38.28619 | -0.59135 | 1492 ft | 191 kts | 278° |
| 2026-04-25 09:33 | 38.28839 | -0.60880 | 2055 ft | 210 kts | 286° |
| 2026-04-25 09:33 | 38.29212 | -0.62769 | 2681 ft | 225 kts | 281° |
| 2026-04-25 09:33 | 38.29525 | -0.64747 | 3576 ft | 229 kts | 284° |
| 2026-04-25 09:34 | 38.29885 | -0.66740 | 4493 ft | 233 kts | 284° |
| 2026-04-25 09:34 | 38.30245 | -0.68791 | 5301 ft | 242 kts | 284° |
| 2026-04-25 09:34 | 38.30595 | -0.70890 | 6154 ft | 249 kts | 283° |
| 2026-04-25 09:34 | 38.30947 | -0.73095 | 7086 ft | 254 kts | 283° |
| 2026-04-25 09:35 | 38.31293 | -0.75294 | 8038 ft | 258 kts | 283° |
| 2026-04-25 09:35 | 38.31643 | -0.77545 | 9080 ft | 260 kts | 281° |
| 2026-04-25 09:35 | 38.31703 | -0.79857 | 10035 ft | 266 kts | 262° |
| 2026-04-25 09:35 | 38.31190 | -0.82115 | 11076 ft | 266 kts | 243° |
| 2026-04-25 09:36 | 38.30158 | -0.84071 | 12086 ft | 266 kts | 225° |
| 2026-04-25 09:36 | 38.28721 | -0.85515 | 13084 ft | 265 kts | 207° |
| 2026-04-25 09:36 | 38.27019 | -0.86339 | 14006 ft | 267 kts | 189° |
| 2026-04-25 09:36 | 38.25146 | -0.86469 | 14937 ft | 269 kts | 172° |
| 2026-04-25 09:37 | 38.23358 | -0.85877 | 15865 ft | 270 kts | 154° |
| 2026-04-25 09:37 | 38.21772 | -0.84603 | 16793 ft | 272 kts | 137° |
| 2026-04-25 09:37 | 38.20561 | -0.82752 | 17714 ft | 274 kts | 120° |
| 2026-04-25 09:37 | 38.19856 | -0.80500 | 18597 ft | 277 kts | 102° |
| 2026-04-25 09:38 | 38.19757 | -0.78040 | 19452 ft | 282 kts | 84° |
| 2026-04-25 09:38 | 38.20270 | -0.75615 | 20311 ft | 288 kts | 70° |
| 2026-04-25 09:38 | 38.21077 | -0.73260 | 21120 ft | 292 kts | 68° |
| 2026-04-25 09:38 | 38.21917 | -0.70896 | 21927 ft | 296 kts | 69° |
| 2026-04-25 09:39 | 38.22741 | -0.68518 | 22679 ft | 301 kts | 73° |
| 2026-04-25 09:39 | 38.23045 | -0.65833 | 22910 ft | 319 kts | 92° |
| 2026-04-25 09:39 | 38.22966 | -0.62918 | 23089 ft | 342 kts | 94° |
| 2026-04-25 09:40 | 38.22782 | -0.56475 | 23393 ft | 386 kts | 93° |
| 2026-04-25 09:40 | 38.22709 | -0.52980 | 23516 ft | 405 kts | 93° |
| 2026-04-25 09:40 | 38.22228 | -0.49409 | 23597 ft | 419 kts | 111° |
| 2026-04-25 09:40 | 38.20776 | -0.46141 | 23853 ft | 429 kts | 126° |
| 2026-04-25 09:41 | 38.18984 | -0.43088 | 24334 ft | 433 kts | 127° |
| 2026-04-25 09:41 | 38.17184 | -0.40077 | 24869 ft | 434 kts | 127° |
| 2026-04-25 09:41 | 38.15361 | -0.37002 | 25349 ft | 437 kts | 127° |
| 2026-04-25 09:41 | 38.13543 | -0.33890 | 25792 ft | 441 kts | 126° |
| 2026-04-25 09:42 | 38.11721 | -0.30743 | 26129 ft | 443 kts | 126° |
| 2026-04-25 09:42 | 38.09887 | -0.27581 | 26143 ft | 446 kts | 128° |
| 2026-04-25 09:42 | 38.07680 | -0.24838 | 26147 ft | 448 kts | 144° |
| 2026-04-25 09:42 | 38.04945 | -0.22944 | 26149 ft | 449 kts | 158° |
| 2026-04-25 09:43 | 38.01921 | -0.21966 | 26158 ft | 450 kts | 170° |
| 2026-04-25 09:43 | 37.98811 | -0.21464 | 26148 ft | 450 kts | 171° |
| 2026-04-25 09:43 | 37.96752 | -0.21151 | 26143 ft | 450 kts | 171° |
| 2026-04-25 09:43 | 37.92642 | -0.20498 | 26144 ft | 449 kts | 171° |
| 2026-04-25 09:44 | 37.89548 | -0.19984 | 26142 ft | 448 kts | 171° |
| 2026-04-25 09:44 | 37.86459 | -0.19457 | 26143 ft | 448 kts | 171° |
| 2026-04-25 09:44 | 37.83371 | -0.18923 | 26145 ft | 448 kts | 170° |
| 2026-04-25 09:44 | 37.81325 | -0.18567 | 26142 ft | 448 kts | 170° |
| 2026-04-25 09:45 | 37.77191 | -0.17848 | 26137 ft | 448 kts | 170° |
| 2026-04-25 09:45 | 37.75147 | -0.17493 | 26137 ft | 448 kts | 171° |
| 2026-04-25 09:45 | 37.72054 | -0.16956 | 26134 ft | 448 kts | 171° |
| 2026-04-25 09:45 | 37.71435 | -0.16849 | 26133 ft | 448 kts | 171° |
| 2026-04-25 09:46 | 37.71021 | -0.16777 | 26132 ft | 448 kts | 171° |
| 2026-04-25 09:46 | 37.66932 | -0.16069 | 26127 ft | 449 kts | 171° |
| 2026-04-25 09:46 | 37.63838 | -0.15534 | 26130 ft | 449 kts | 171° |
| 2026-04-25 09:46 | 37.61749 | -0.15173 | 26130 ft | 449 kts | 171° |
| 2026-04-25 09:47 | 37.58693 | -0.14645 | 26129 ft | 449 kts | 171° |
| 2026-04-25 09:47 | 37.55598 | -0.14111 | 26129 ft | 449 kts | 171° |
| 2026-04-25 09:47 | 37.52503 | -0.13578 | 26128 ft | 449 kts | 171° |
| 2026-04-25 09:47 | 37.49407 | -0.13046 | 26131 ft | 449 kts | 171° |
| 2026-04-25 09:48 | 37.46310 | -0.12513 | 26125 ft | 449 kts | 171° |
| 2026-04-25 09:48 | 37.43212 | -0.11980 | 26119 ft | 450 kts | 171° |
| 2026-04-25 09:48 | 37.40116 | -0.11448 | 26119 ft | 449 kts | 171° |
| 2026-04-25 09:48 | 37.37019 | -0.10916 | 26122 ft | 449 kts | 171° |
| 2026-04-25 09:49 | 37.33958 | -0.10391 | 26123 ft | 450 kts | 171° |
| 2026-04-25 09:49 | 37.30862 | -0.09861 | 26119 ft | 450 kts | 171° |
| 2026-04-25 09:49 | 37.27757 | -0.09331 | 26114 ft | 450 kts | 171° |
| 2026-04-25 09:49 | 37.24661 | -0.08801 | 26119 ft | 449 kts | 171° |
| 2026-04-25 09:50 | 37.21562 | -0.08271 | 26121 ft | 449 kts | 171° |
| 2026-04-25 09:50 | 37.18464 | -0.07741 | 26119 ft | 449 kts | 171° |
| 2026-04-25 09:50 | 37.15366 | -0.07212 | 26119 ft | 449 kts | 171° |
| 2026-04-25 09:50 | 37.12271 | -0.06685 | 26117 ft | 449 kts | 171° |
| 2026-04-25 09:51 | 37.09217 | -0.06165 | 26121 ft | 449 kts | 171° |
| 2026-04-25 09:51 | 37.06124 | -0.05638 | 26119 ft | 449 kts | 171° |
| 2026-04-25 09:51 | 37.03027 | -0.05110 | 26113 ft | 449 kts | 171° |
| 2026-04-25 09:51 | 36.99929 | -0.04581 | 26113 ft | 449 kts | 171° |
| 2026-04-25 09:52 | 36.96828 | -0.04054 | 26111 ft | 450 kts | 171° |
| 2026-04-25 09:52 | 36.93731 | -0.03527 | 26109 ft | 450 kts | 171° |
| 2026-04-25 09:52 | 36.90630 | -0.03000 | 26111 ft | 449 kts | 171° |
| 2026-04-25 09:52 | 36.87531 | -0.02474 | 26110 ft | 449 kts | 171° |
| 2026-04-25 09:53 | 36.84435 | -0.01957 | 26111 ft | 449 kts | 171° |
| 2026-04-25 09:53 | 36.81373 | -0.01458 | 26110 ft | 449 kts | 171° |
| 2026-04-25 09:53 | 36.78274 | -0.00957 | 26113 ft | 449 kts | 171° |
| 2026-04-25 09:53 | 36.75180 | -0.00460 | 26113 ft | 449 kts | 171° |
| 2026-04-25 09:54 | 36.72079 | 0.00047 | 26103 ft | 450 kts | 171° |
| 2026-04-25 09:54 | 36.68975 | 0.00553 | 26090 ft | 450 kts | 171° |
| 2026-04-25 09:54 | 36.65870 | 0.01052 | 26096 ft | 450 kts | 171° |
| 2026-04-25 09:54 | 36.62761 | 0.01554 | 26102 ft | 451 kts | 172° |
| 2026-04-25 09:55 | 36.59650 | 0.02055 | 26104 ft | 451 kts | 172° |
| 2026-04-25 09:55 | 36.56533 | 0.02554 | 26101 ft | 452 kts | 171° |
| 2026-04-25 09:55 | 36.53460 | 0.03050 | 26102 ft | 451 kts | 172° |
| 2026-04-25 09:55 | 36.50348 | 0.03551 | 26101 ft | 452 kts | 172° |
| 2026-04-25 09:56 | 36.47231 | 0.04047 | 26101 ft | 452 kts | 171° |
| 2026-04-25 09:56 | 36.44112 | 0.04549 | 26104 ft | 453 kts | 172° |
| 2026-04-25 09:56 | 36.40987 | 0.05052 | 26104 ft | 453 kts | 172° |
| 2026-04-25 09:56 | 36.37864 | 0.05555 | 26101 ft | 453 kts | 171° |
| 2026-04-25 09:57 | 36.34737 | 0.06059 | 26098 ft | 453 kts | 172° |
| 2026-04-25 09:57 | 36.31611 | 0.06560 | 26092 ft | 453 kts | 171° |
| 2026-04-25 09:57 | 36.28529 | 0.07057 | 26091 ft | 453 kts | 171° |
| 2026-04-25 09:57 | 36.25408 | 0.07580 | 26093 ft | 453 kts | 172° |
| 2026-04-25 09:58 | 36.22287 | 0.08113 | 26091 ft | 453 kts | 171° |
| 2026-04-25 09:58 | 36.19163 | 0.08648 | 26093 ft | 453 kts | 171° |
| 2026-04-25 09:58 | 36.16045 | 0.09180 | 26092 ft | 453 kts | 172° |
| 2026-04-25 09:58 | 36.12924 | 0.09710 | 26092 ft | 452 kts | 171° |
| 2026-04-25 09:59 | 36.09805 | 0.10240 | 26093 ft | 452 kts | 172° |
| 2026-04-25 09:59 | 36.06690 | 0.10767 | 26094 ft | 452 kts | 171° |
| 2026-04-25 09:59 | 36.03615 | 0.11287 | 25744 ft | 453 kts | 171° |
| 2026-04-25 09:59 | 36.00472 | 0.11816 | 24578 ft | 455 kts | 171° |
| 2026-04-25 10:00 | 35.97349 | 0.12288 | 23581 ft | 448 kts | 177° |
| 2026-04-25 10:00 | 35.94288 | 0.11899 | 22676 ft | 441 kts | 194° |
| 2026-04-25 10:00 | 35.91490 | 0.10459 | 21767 ft | 435 kts | 209° |
| 2026-04-25 10:00 | 35.89087 | 0.08248 | 20887 ft | 429 kts | 221° |
| 2026-04-25 10:01 | 35.87129 | 0.05516 | 19992 ft | 424 kts | 234° |
| 2026-04-25 10:01 | 35.85744 | 0.02334 | 19128 ft | 418 kts | 244° |
| 2026-04-25 10:01 | 35.84580 | -0.00918 | 18253 ft | 412 kts | 245° |
| 2026-04-25 10:01 | 35.83481 | -0.04108 | 17394 ft | 406 kts | 246° |
| 2026-04-25 10:02 | 35.82388 | -0.07291 | 16535 ft | 401 kts | 245° |
| 2026-04-25 10:02 | 35.81300 | -0.10431 | 15688 ft | 395 kts | 245° |
| 2026-04-25 10:02 | 35.80209 | -0.13525 | 14824 ft | 392 kts | 245° |
| 2026-04-25 10:02 | 35.79129 | -0.16582 | 13980 ft | 387 kts | 245° |
| 2026-04-25 10:03 | 35.78058 | -0.19592 | 13142 ft | 380 kts | 244° |
| 2026-04-25 10:03 | 35.76990 | -0.22557 | 12323 ft | 377 kts | 244° |
| 2026-04-25 10:03 | 35.75939 | -0.25488 | 11505 ft | 372 kts | 244° |
| 2026-04-25 10:03 | 35.74902 | -0.28380 | 10940 ft | 362 kts | 244° |
| 2026-04-25 10:04 | 35.73906 | -0.31153 | 10800 ft | 348 kts | 244° |
| 2026-04-25 10:04 | 35.72951 | -0.33807 | 10645 ft | 340 kts | 245° |
| 2026-04-25 10:04 | 35.72007 | -0.36425 | 10498 ft | 327 kts | 245° |
| 2026-04-25 10:04 | 35.71107 | -0.38922 | 10352 ft | 311 kts | 245° |
| 2026-04-25 10:05 | 35.70249 | -0.41301 | 10216 ft | 297 kts | 245° |
| 2026-04-25 10:05 | 35.69429 | -0.43570 | 10095 ft | 284 kts | 245° |
| 2026-04-25 10:05 | 35.68638 | -0.45758 | 9796 ft | 278 kts | 245° |
| 2026-04-25 10:05 | 35.67854 | -0.47921 | 9458 ft | 275 kts | 245° |
| 2026-04-25 10:06 | 35.67078 | -0.50064 | 9113 ft | 274 kts | 245° |
| 2026-04-25 10:06 | 35.66306 | -0.52193 | 8765 ft | 272 kts | 245° |
| 2026-04-25 10:06 | 35.65549 | -0.54278 | 8416 ft | 270 kts | 245° |
| 2026-04-25 10:06 | 35.64787 | -0.56378 | 8066 ft | 268 kts | 245° |
| 2026-04-25 10:07 | 35.64029 | -0.58467 | 7717 ft | 267 kts | 245° |
| 2026-04-25 10:07 | 35.63274 | -0.60542 | 7377 ft | 266 kts | 245° |
| 2026-04-25 10:07 | 35.62520 | -0.62622 | 7031 ft | 267 kts | 246° |
| 2026-04-25 10:07 | 35.61761 | -0.64710 | 6685 ft | 269 kts | 245° |
| 2026-04-25 10:08 | 35.60996 | -0.66807 | 6335 ft | 270 kts | 246° |
| 2026-04-25 10:08 | 35.60231 | -0.68915 | 6003 ft | 270 kts | 245° |
| 2026-04-25 10:08 | 35.59482 | -0.70977 | 5727 ft | 263 kts | 245° |
| 2026-04-25 10:08 | 35.58749 | -0.72986 | 5444 ft | 253 kts | 245° |
| 2026-04-25 10:09 | 35.58038 | -0.74929 | 5151 ft | 245 kts | 245° |
| 2026-04-25 10:09 | 35.57353 | -0.76805 | 4875 ft | 237 kts | 245° |
| 2026-04-25 10:09 | 35.56609 | -0.78566 | 4583 ft | 228 kts | 230° |
| 2026-04-25 10:09 | 35.55415 | -0.79711 | 4366 ft | 210 kts | 203° |
| 2026-04-25 10:10 | 35.54063 | -0.80176 | 4220 ft | 198 kts | 182° |
| 2026-04-25 10:10 | 35.52729 | -0.80022 | 4130 ft | 191 kts | 160° |
| 2026-04-25 10:10 | 35.51571 | -0.79319 | 4041 ft | 188 kts | 140° |
| 2026-04-25 10:10 | 35.50691 | -0.78152 | 3962 ft | 186 kts | 119° |
| 2026-04-25 10:11 | 35.50208 | -0.76695 | 3888 ft | 184 kts | 101° |
| 2026-04-25 10:11 | 35.50074 | -0.75152 | 3704 ft | 180 kts | 85° |
| 2026-04-25 10:11 | 35.50478 | -0.73770 | 3446 ft | 174 kts | 41° |
| 2026-04-25 10:11 | 35.51588 | -0.73388 | 3316 ft | 175 kts | 349° |
| 2026-04-25 10:12 | 35.52774 | -0.73813 | 3144 ft | 180 kts | 348° |
| 2026-04-25 10:12 | 35.53999 | -0.74141 | 2922 ft | 180 kts | 352° |
| 2026-04-25 10:12 | 35.56446 | -0.74773 | 2250 ft | 189 kts | 340° |
| 2026-04-25 10:13 | 35.57661 | -0.75134 | 2100 ft | 174 kts | 11° |
| 2026-04-25 10:13 | 35.58570 | -0.74397 | 2030 ft | 155 kts | 65° |
| 2026-04-25 10:13 | 35.58840 | -0.73127 | 1871 ft | 157 kts | 73° |
| 2026-04-25 10:13 | 35.59194 | -0.71882 | 1672 ft | 149 kts | 69° |
| 2026-04-25 10:14 | 35.59557 | -0.70748 | 1475 ft | 140 kts | 68° |
| 2026-04-25 10:14 | 35.59910 | -0.69651 | 1294 ft | 138 kts | 68° |
| 2026-04-25 10:14 | 35.60267 | -0.68551 | 1112 ft | 138 kts | 68° |
| 2026-04-25 10:14 | 35.60614 | -0.67434 | 873 ft | 142 kts | 69° |
| 2026-04-25 10:15 | 35.60957 | -0.66309 | 668 ft | 143 kts | 69° |
| 2026-04-25 10:15 | 35.61331 | -0.65169 | 458 ft | 143 kts | 66° |
| 2026-04-25 10:15 | 35.61716 | -0.64052 | 311 ft | 138 kts | 68° |
| 2026-04-25 10:15 | 35.62053 | -0.63077 | 301 ft | 105 kts | 67° |
| 2026-04-25 10:16 | 35.62280 | -0.62419 | 301 ft | 62 kts | 67° |
| 2026-04-25 10:16 | 35.62392 | -0.62095 | 299 ft | 22 kts | 67° |
| 2026-04-25 10:16 | 35.62449 | -0.61923 | 302 ft | 24 kts | 67° |
| 2026-04-25 10:16 | 35.62519 | -0.61718 | 300 ft | 28 kts | 67° |
| 2026-04-25 10:17 | 35.62596 | -0.61492 | 304 ft | 30 kts | 67° |
| 2026-04-25 10:17 | 35.62685 | -0.61234 | 305 ft | 37 kts | 67° |
| 2026-04-25 10:17 | 35.62794 | -0.60917 | 303 ft | 38 kts | 67° |
| 2026-04-25 10:17 | 35.62878 | -0.60645 | 303 ft | 24 kts | 83° |
| 2026-04-25 10:18 | 35.62788 | -0.60496 | 303 ft | 23 kts | 149° |
| 2026-04-25 10:18 | 35.62645 | -0.60420 | 305 ft | 22 kts | 159° |
| 2026-04-25 10:18 | 35.62503 | -0.60356 | 305 ft | 21 kts | 173° |
| 2026-04-25 10:18 | 35.62357 | -0.60370 | 303 ft | 21 kts | 188° |
| 2026-04-25 10:19 | 35.62256 | -0.60384 | 303 ft | 12 kts | 162° |
| 2026-04-25 10:19 | 35.62215 | -0.60379 | 303 ft | 5 kts | 199° |
| 2026-04-25 10:19 | 35.62209 | -0.60383 | 303 ft | 0 kts | 208° |